DAL2849 KMCO-KDTW
Flight info
| Callsign | DAL2849 |
|---|---|
| Flight time | 2h 15m |
| Altitude | 34000 |
| Route | JEEMY4 PAINN SHRKS Q77 WIGVO IRQ BURGG HNN SUBWY HTROD2 |
| Aircraft | A321/M-SDE3FGHIRWY/LB1 |
Departure
| Time | 2026-04-24 12:40 |
|---|---|
| Airport | Orlando International Airport (KMCO) |
Arrival
| Time | 2026-04-24 14:55 |
|---|---|
| Airport | Detroit Metropolitan Wayne County Airport (KDTW) |
| Time | Latitude | Longitude | Altitude | Speed | Heading |
|---|---|---|---|---|---|
| 2026-04-24 11:27 | 28.42794 | -81.30004 | 111 ft | 0 kts | 309° |
| 2026-04-24 12:31 | 28.42782 | -81.29987 | 110 ft | 4 kts | 309° |
| 2026-04-24 12:32 | 28.42766 | -81.29965 | 110 ft | 4 kts | 309° |
| 2026-04-24 12:32 | 28.42750 | -81.29943 | 110 ft | 4 kts | 309° |
| 2026-04-24 12:32 | 28.42737 | -81.29925 | 110 ft | 1 kts | 309° |
| 2026-04-24 12:35 | 28.42744 | -81.29930 | 110 ft | 3 kts | 339° |
| 2026-04-24 12:35 | 28.42772 | -81.29900 | 110 ft | 8 kts | 47° |
| 2026-04-24 12:36 | 28.42820 | -81.29885 | 110 ft | 8 kts | 3° |
| 2026-04-24 12:36 | 28.42888 | -81.29877 | 110 ft | 11 kts | 26° |
| 2026-04-24 12:36 | 28.42933 | -81.29805 | 110 ft | 11 kts | 23° |
| 2026-04-24 12:36 | 28.43020 | -81.29800 | 110 ft | 14 kts | 360° |
| 2026-04-24 12:37 | 28.43132 | -81.29800 | 110 ft | 17 kts | 359° |
| 2026-04-24 12:37 | 28.43248 | -81.29801 | 110 ft | 17 kts | 359° |
| 2026-04-24 12:37 | 28.43362 | -81.29803 | 110 ft | 16 kts | 359° |
| 2026-04-24 12:37 | 28.43469 | -81.29805 | 110 ft | 14 kts | 359° |
| 2026-04-24 12:38 | 28.43547 | -81.29774 | 110 ft | 11 kts | 59° |
| 2026-04-24 12:38 | 28.43551 | -81.29689 | 110 ft | 11 kts | 93° |
| 2026-04-24 12:38 | 28.43543 | -81.29606 | 110 ft | 8 kts | 130° |
| 2026-04-24 12:39 | 28.43058 | -81.29583 | 111 ft | 92 kts | 180° |
| 2026-04-24 12:39 | 28.42184 | -81.29570 | 111 ft | 156 kts | 179° |
| 2026-04-24 12:39 | 28.41014 | -81.29559 | 512 ft | 171 kts | 180° |
| 2026-04-24 12:40 | 28.39794 | -81.29556 | 1101 ft | 180 kts | 180° |
| 2026-04-24 12:40 | 28.38500 | -81.29448 | 1615 ft | 192 kts | 167° |
| 2026-04-24 12:40 | 28.37290 | -81.28777 | 1933 ft | 202 kts | 143° |
| 2026-04-24 12:40 | 28.36115 | -81.27776 | 2269 ft | 216 kts | 141° |
| 2026-04-24 12:41 | 28.34867 | -81.26755 | 2561 ft | 233 kts | 144° |
| 2026-04-24 12:41 | 28.33574 | -81.25553 | 2972 ft | 247 kts | 132° |
| 2026-04-24 12:41 | 28.32421 | -81.24056 | 3552 ft | 255 kts | 130° |
| 2026-04-24 12:41 | 28.31247 | -81.22523 | 4244 ft | 259 kts | 131° |
| 2026-04-24 12:42 | 28.30314 | -81.20770 | 4903 ft | 264 kts | 108° |
| 2026-04-24 12:42 | 28.30169 | -81.18687 | 5553 ft | 269 kts | 81° |
| 2026-04-24 12:42 | 28.30864 | -81.16712 | 6208 ft | 274 kts | 56° |
| 2026-04-24 12:42 | 28.32250 | -81.15230 | 6851 ft | 278 kts | 30° |
| 2026-04-24 12:43 | 28.34092 | -81.14550 | 7488 ft | 282 kts | 5° |
| 2026-04-24 12:43 | 28.36038 | -81.14834 | 8116 ft | 286 kts | 343° |
| 2026-04-24 12:43 | 28.37915 | -81.15597 | 8768 ft | 288 kts | 339° |
| 2026-04-24 12:43 | 28.39803 | -81.16421 | 9400 ft | 291 kts | 340° |
| 2026-04-24 12:44 | 28.41683 | -81.17192 | 10017 ft | 293 kts | 341° |
| 2026-04-24 12:44 | 28.43644 | -81.17929 | 10518 ft | 301 kts | 342° |
| 2026-04-24 12:44 | 28.45696 | -81.18677 | 10761 ft | 318 kts | 342° |
| 2026-04-24 12:44 | 28.47864 | -81.19483 | 10960 ft | 336 kts | 341° |
| 2026-04-24 12:45 | 28.50131 | -81.20338 | 11200 ft | 350 kts | 341° |
| 2026-04-24 12:45 | 28.52471 | -81.21221 | 11645 ft | 357 kts | 340° |
| 2026-04-24 12:45 | 28.54838 | -81.22111 | 12269 ft | 358 kts | 340° |
| 2026-04-24 12:45 | 28.57207 | -81.22999 | 12854 ft | 360 kts | 340° |
| 2026-04-24 12:46 | 28.59603 | -81.23896 | 13416 ft | 362 kts | 340° |
| 2026-04-24 12:46 | 28.62007 | -81.24800 | 13967 ft | 365 kts | 340° |
| 2026-04-24 12:46 | 28.64393 | -81.25699 | 14499 ft | 367 kts | 340° |
| 2026-04-24 12:46 | 28.66824 | -81.26617 | 15025 ft | 369 kts | 340° |
| 2026-04-24 12:47 | 28.69268 | -81.27540 | 15542 ft | 372 kts | 340° |
| 2026-04-24 12:47 | 28.71732 | -81.28468 | 16051 ft | 374 kts | 340° |
| 2026-04-24 12:47 | 28.74209 | -81.29401 | 16543 ft | 376 kts | 340° |
| 2026-04-24 12:47 | 28.76711 | -81.30347 | 17032 ft | 378 kts | 340° |
| 2026-04-24 12:48 | 28.79220 | -81.31296 | 17507 ft | 381 kts | 339° |
| 2026-04-24 12:48 | 28.81739 | -81.32249 | 17967 ft | 383 kts | 339° |
| 2026-04-24 12:48 | 28.84273 | -81.33210 | 18408 ft | 385 kts | 339° |
| 2026-04-24 12:48 | 28.86827 | -81.34177 | 18845 ft | 387 kts | 340° |
| 2026-04-24 12:49 | 28.89395 | -81.35147 | 19286 ft | 389 kts | 340° |
| 2026-04-24 12:49 | 28.91976 | -81.36125 | 19715 ft | 391 kts | 340° |
| 2026-04-24 12:49 | 28.94565 | -81.37107 | 20124 ft | 393 kts | 340° |
| 2026-04-24 12:49 | 28.97172 | -81.38097 | 20523 ft | 396 kts | 340° |
| 2026-04-24 12:50 | 28.99788 | -81.39089 | 20925 ft | 398 kts | 340° |
| 2026-04-24 12:50 | 29.02423 | -81.40090 | 21323 ft | 399 kts | 340° |
| 2026-04-24 12:50 | 29.05029 | -81.41081 | 21696 ft | 401 kts | 340° |
| 2026-04-24 12:50 | 29.07688 | -81.42093 | 22061 ft | 403 kts | 340° |
| 2026-04-24 12:51 | 29.10402 | -81.42932 | 22416 ft | 407 kts | 348° |
| 2026-04-24 12:51 | 29.13233 | -81.43320 | 22774 ft | 410 kts | 352° |
| 2026-04-24 12:51 | 29.16085 | -81.43577 | 23117 ft | 412 kts | 354° |
| 2026-04-24 12:51 | 29.18955 | -81.43788 | 23447 ft | 414 kts | 354° |
| 2026-04-24 12:52 | 29.21836 | -81.44015 | 23780 ft | 416 kts | 353° |
| 2026-04-24 12:52 | 29.24729 | -81.44282 | 24100 ft | 417 kts | 353° |
| 2026-04-24 12:52 | 29.27628 | -81.44578 | 24404 ft | 419 kts | 353° |
| 2026-04-24 12:52 | 29.30540 | -81.44875 | 24703 ft | 421 kts | 353° |
| 2026-04-24 12:53 | 29.33467 | -81.45160 | 24999 ft | 422 kts | 353° |
| 2026-04-24 12:53 | 29.36402 | -81.45435 | 25283 ft | 424 kts | 353° |
| 2026-04-24 12:53 | 29.39354 | -81.45710 | 25562 ft | 426 kts | 353° |
| 2026-04-24 12:53 | 29.42274 | -81.45985 | 25828 ft | 428 kts | 353° |
| 2026-04-24 12:54 | 29.45248 | -81.46267 | 26099 ft | 429 kts | 353° |
| 2026-04-24 12:54 | 29.48231 | -81.46544 | 26362 ft | 431 kts | 353° |
| 2026-04-24 12:54 | 29.51223 | -81.46833 | 26610 ft | 433 kts | 353° |
| 2026-04-24 12:54 | 29.54230 | -81.47117 | 26855 ft | 434 kts | 353° |
| 2026-04-24 12:55 | 29.57256 | -81.47410 | 27108 ft | 436 kts | 353° |
| 2026-04-24 12:55 | 29.60283 | -81.47703 | 27349 ft | 437 kts | 354° |
| 2026-04-24 12:55 | 29.63326 | -81.47979 | 27590 ft | 439 kts | 354° |
| 2026-04-24 12:55 | 29.66376 | -81.48251 | 27815 ft | 440 kts | 354° |
| 2026-04-24 12:56 | 29.69439 | -81.48526 | 28025 ft | 442 kts | 354° |
| 2026-04-24 12:56 | 29.72510 | -81.48804 | 28259 ft | 443 kts | 354° |
| 2026-04-24 12:56 | 29.75595 | -81.49085 | 28465 ft | 445 kts | 354° |
| 2026-04-24 12:56 | 29.78690 | -81.49367 | 28673 ft | 447 kts | 354° |
| 2026-04-24 12:57 | 29.81791 | -81.49649 | 28872 ft | 448 kts | 354° |
| 2026-04-24 12:57 | 29.84904 | -81.49933 | 29105 ft | 448 kts | 354° |
| 2026-04-24 12:57 | 29.88014 | -81.50243 | 29350 ft | 448 kts | 351° |
| 2026-04-24 12:57 | 29.91057 | -81.50976 | 29595 ft | 446 kts | 343° |
| 2026-04-24 12:58 | 29.93991 | -81.51975 | 29816 ft | 446 kts | 341° |
| 2026-04-24 12:58 | 29.96978 | -81.53084 | 30074 ft | 445 kts | 341° |
| 2026-04-24 12:58 | 29.99888 | -81.54185 | 30326 ft | 445 kts | 341° |
| 2026-04-24 12:58 | 30.02837 | -81.55273 | 30549 ft | 445 kts | 341° |
| 2026-04-24 12:59 | 30.05793 | -81.56326 | 30790 ft | 445 kts | 342° |
| 2026-04-24 12:59 | 30.08751 | -81.57360 | 31033 ft | 444 kts | 342° |
| 2026-04-24 12:59 | 30.11710 | -81.58401 | 31271 ft | 443 kts | 342° |
| 2026-04-24 12:59 | 30.14653 | -81.59455 | 31503 ft | 443 kts | 341° |
| 2026-04-24 13:00 | 30.17588 | -81.60516 | 31732 ft | 442 kts | 341° |
| 2026-04-24 13:00 | 30.20530 | -81.61578 | 31953 ft | 442 kts | 341° |
| 2026-04-24 13:00 | 30.23461 | -81.62632 | 32208 ft | 440 kts | 341° |
| 2026-04-24 13:00 | 30.26386 | -81.63679 | 32428 ft | 440 kts | 341° |
| 2026-04-24 13:01 | 30.29302 | -81.64725 | 32641 ft | 439 kts | 341° |
| 2026-04-24 13:01 | 30.32216 | -81.65773 | 32845 ft | 438 kts | 341° |
| 2026-04-24 13:01 | 30.35133 | -81.66824 | 33048 ft | 438 kts | 341° |
| 2026-04-24 13:01 | 30.38044 | -81.67873 | 33249 ft | 438 kts | 341° |
| 2026-04-24 13:02 | 30.40954 | -81.68920 | 33443 ft | 437 kts | 341° |
| 2026-04-24 13:02 | 30.43815 | -81.69952 | 33638 ft | 436 kts | 341° |
| 2026-04-24 13:02 | 30.46712 | -81.70999 | 33821 ft | 436 kts | 341° |
| 2026-04-24 13:02 | 30.49605 | -81.72044 | 33998 ft | 436 kts | 341° |
| 2026-04-24 13:03 | 30.52504 | -81.73091 | 34083 ft | 435 kts | 341° |
| 2026-04-24 13:03 | 30.58284 | -81.75181 | 34083 ft | 436 kts | 341° |
| 2026-04-24 13:04 | 30.64129 | -81.77035 | 34081 ft | 437 kts | 348° |
| 2026-04-24 13:04 | 30.70122 | -81.78237 | 34084 ft | 437 kts | 349° |
| 2026-04-24 13:05 | 30.76123 | -81.79381 | 34086 ft | 437 kts | 349° |
| 2026-04-24 13:05 | 30.82101 | -81.80594 | 34068 ft | 437 kts | 349° |
| 2026-04-24 13:06 | 30.88104 | -81.81810 | 34045 ft | 437 kts | 349° |
| 2026-04-24 13:06 | 30.94063 | -81.82997 | 34050 ft | 437 kts | 349° |
| 2026-04-24 13:07 | 31.00064 | -81.84205 | 34037 ft | 438 kts | 349° |
| 2026-04-24 13:07 | 31.06067 | -81.85416 | 34044 ft | 438 kts | 349° |
| 2026-04-24 13:08 | 31.12080 | -81.86627 | 34068 ft | 438 kts | 349° |
| 2026-04-24 13:08 | 31.18101 | -81.87842 | 34049 ft | 439 kts | 349° |
| 2026-04-24 13:09 | 31.27147 | -81.89669 | 34081 ft | 439 kts | 349° |
| 2026-04-24 13:09 | 31.33172 | -81.90888 | 34077 ft | 440 kts | 349° |
| 2026-04-24 13:10 | 31.39172 | -81.92107 | 34060 ft | 440 kts | 349° |
| 2026-04-24 13:10 | 31.45207 | -81.93330 | 34071 ft | 440 kts | 349° |
| 2026-04-24 13:11 | 31.51253 | -81.94559 | 34076 ft | 441 kts | 349° |
| 2026-04-24 13:11 | 31.57304 | -81.95790 | 34080 ft | 441 kts | 349° |
| 2026-04-24 13:12 | 31.63356 | -81.97024 | 34056 ft | 442 kts | 349° |
| 2026-04-24 13:12 | 31.69419 | -81.98261 | 34077 ft | 442 kts | 349° |
| 2026-04-24 13:13 | 31.75443 | -81.99491 | 34085 ft | 442 kts | 349° |
| 2026-04-24 13:13 | 31.81504 | -82.00732 | 34088 ft | 442 kts | 349° |
| 2026-04-24 13:14 | 31.87568 | -82.01822 | 34088 ft | 443 kts | 355° |
| 2026-04-24 13:14 | 31.92732 | -82.02061 | 34086 ft | 443 kts | 358° |
| 2026-04-24 13:15 | 31.98868 | -82.02201 | 34091 ft | 443 kts | 358° |
| 2026-04-24 13:15 | 32.05039 | -82.02408 | 34096 ft | 443 kts | 357° |
| 2026-04-24 13:16 | 32.11212 | -82.02646 | 34102 ft | 443 kts | 357° |
| 2026-04-24 13:16 | 32.17378 | -82.02852 | 34102 ft | 443 kts | 357° |
| 2026-04-24 13:17 | 32.23546 | -82.03061 | 34103 ft | 443 kts | 357° |
| 2026-04-24 13:17 | 32.29716 | -82.03279 | 34106 ft | 443 kts | 357° |
| 2026-04-24 13:18 | 32.35885 | -82.03493 | 34096 ft | 443 kts | 357° |
| 2026-04-24 13:18 | 32.42009 | -82.03704 | 34096 ft | 443 kts | 357° |
| 2026-04-24 13:19 | 32.48162 | -82.04055 | 34067 ft | 443 kts | 354° |
| 2026-04-24 13:19 | 32.54303 | -82.04659 | 34045 ft | 443 kts | 354° |
| 2026-04-24 13:20 | 32.60448 | -82.05285 | 34029 ft | 443 kts | 354° |
| 2026-04-24 13:20 | 32.66591 | -82.05878 | 34020 ft | 443 kts | 354° |
| 2026-04-24 13:21 | 32.72737 | -82.06476 | 34024 ft | 443 kts | 354° |
| 2026-04-24 13:21 | 32.78882 | -82.07084 | 34020 ft | 443 kts | 354° |
| 2026-04-24 13:22 | 32.85032 | -82.07689 | 34027 ft | 443 kts | 354° |
| 2026-04-24 13:22 | 32.91141 | -82.08289 | 34039 ft | 443 kts | 354° |
| 2026-04-24 13:23 | 32.97295 | -82.08895 | 34053 ft | 443 kts | 354° |
| 2026-04-24 13:23 | 33.03444 | -82.09502 | 34064 ft | 443 kts | 354° |
| 2026-04-24 13:24 | 33.09600 | -82.10111 | 34072 ft | 443 kts | 354° |
| 2026-04-24 13:24 | 33.15750 | -82.10718 | 34074 ft | 443 kts | 353° |
| 2026-04-24 13:25 | 33.21869 | -82.11326 | 34084 ft | 443 kts | 353° |
| 2026-04-24 13:25 | 33.28015 | -82.11938 | 34081 ft | 443 kts | 353° |
| 2026-04-24 13:26 | 33.34170 | -82.12549 | 34074 ft | 444 kts | 353° |
| 2026-04-24 13:26 | 33.40329 | -82.13162 | 34071 ft | 444 kts | 353° |
| 2026-04-24 13:27 | 33.46494 | -82.13777 | 34054 ft | 444 kts | 353° |
| 2026-04-24 13:27 | 33.52617 | -82.14388 | 34057 ft | 444 kts | 353° |
| 2026-04-24 13:28 | 33.58776 | -82.15003 | 34056 ft | 444 kts | 353° |
| 2026-04-24 13:28 | 33.64928 | -82.15621 | 34058 ft | 444 kts | 353° |
| 2026-04-24 13:29 | 33.71101 | -82.16072 | 34040 ft | 446 kts | 1° |
| 2026-04-24 13:29 | 33.77267 | -82.15163 | 34032 ft | 447 kts | 7° |
| 2026-04-24 13:30 | 33.83414 | -82.13966 | 34045 ft | 447 kts | 7° |
| 2026-04-24 13:30 | 33.89529 | -82.12889 | 34055 ft | 447 kts | 6° |
| 2026-04-24 13:31 | 33.95690 | -82.11852 | 34064 ft | 447 kts | 6° |
| 2026-04-24 13:31 | 34.01842 | -82.10760 | 34074 ft | 447 kts | 7° |
| 2026-04-24 13:32 | 34.08000 | -82.09667 | 34085 ft | 447 kts | 6° |
| 2026-04-24 13:32 | 34.14156 | -82.08589 | 34095 ft | 447 kts | 6° |
| 2026-04-24 13:33 | 34.20311 | -82.07503 | 34096 ft | 447 kts | 7° |
| 2026-04-24 13:33 | 34.26471 | -82.06414 | 34093 ft | 447 kts | 7° |
| 2026-04-24 13:34 | 34.32586 | -82.05332 | 34092 ft | 447 kts | 6° |
| 2026-04-24 13:34 | 34.38744 | -82.04237 | 34091 ft | 447 kts | 6° |
| 2026-04-24 13:35 | 34.44897 | -82.03148 | 34088 ft | 447 kts | 6° |
| 2026-04-24 13:35 | 34.51047 | -82.02054 | 34088 ft | 446 kts | 6° |
| 2026-04-24 13:36 | 34.57184 | -82.00962 | 34079 ft | 446 kts | 6° |
| 2026-04-24 13:36 | 34.63330 | -81.99865 | 34068 ft | 446 kts | 6° |
| 2026-04-24 13:37 | 34.69470 | -81.98767 | 34085 ft | 445 kts | 6° |
| 2026-04-24 13:37 | 34.75594 | -81.97675 | 34064 ft | 445 kts | 6° |
| 2026-04-24 13:38 | 34.81683 | -81.96584 | 34065 ft | 445 kts | 6° |
| 2026-04-24 13:38 | 34.87808 | -81.95481 | 34046 ft | 445 kts | 6° |
| 2026-04-24 13:39 | 34.93929 | -81.94385 | 34048 ft | 444 kts | 6° |
| 2026-04-24 13:39 | 35.00051 | -81.93284 | 34039 ft | 444 kts | 6° |
| 2026-04-24 13:40 | 35.06189 | -81.92696 | 34020 ft | 441 kts | 357° |
| 2026-04-24 13:40 | 35.12329 | -81.92878 | 34026 ft | 440 kts | 355° |
| 2026-04-24 13:41 | 35.18442 | -81.93099 | 34029 ft | 440 kts | 356° |
| 2026-04-24 13:41 | 35.24537 | -81.93226 | 34036 ft | 440 kts | 356° |
| 2026-04-24 13:42 | 35.30677 | -81.93372 | 34039 ft | 440 kts | 356° |
| 2026-04-24 13:42 | 35.36803 | -81.93543 | 34052 ft | 440 kts | 356° |
| 2026-04-24 13:43 | 35.42921 | -81.93699 | 34049 ft | 440 kts | 356° |
| 2026-04-24 13:43 | 35.49033 | -81.93852 | 34056 ft | 439 kts | 356° |
| 2026-04-24 13:44 | 35.55119 | -81.94008 | 34066 ft | 439 kts | 356° |
| 2026-04-24 13:44 | 35.61238 | -81.94169 | 34076 ft | 439 kts | 356° |
| 2026-04-24 13:45 | 35.67348 | -81.94326 | 34086 ft | 439 kts | 356° |
| 2026-04-24 13:45 | 35.73458 | -81.94483 | 34100 ft | 439 kts | 355° |
| 2026-04-24 13:46 | 35.79559 | -81.94644 | 34104 ft | 439 kts | 355° |
| 2026-04-24 13:46 | 35.85666 | -81.94805 | 34107 ft | 438 kts | 356° |
| 2026-04-24 13:47 | 35.91767 | -81.94961 | 34083 ft | 438 kts | 356° |
| 2026-04-24 13:47 | 35.97836 | -81.95121 | 34068 ft | 438 kts | 355° |
| 2026-04-24 13:48 | 36.03941 | -81.95283 | 34058 ft | 438 kts | 356° |
| 2026-04-24 13:48 | 36.10032 | -81.95436 | 34053 ft | 438 kts | 356° |
| 2026-04-24 13:49 | 36.16137 | -81.95597 | 34053 ft | 438 kts | 355° |
| 2026-04-24 13:49 | 36.22243 | -81.95758 | 34058 ft | 438 kts | 356° |
| 2026-04-24 13:50 | 36.28335 | -81.95917 | 34079 ft | 438 kts | 356° |
| 2026-04-24 13:50 | 36.34431 | -81.96077 | 34089 ft | 438 kts | 355° |
| 2026-04-24 13:51 | 36.40482 | -81.96237 | 34107 ft | 438 kts | 355° |
| 2026-04-24 13:51 | 36.46575 | -81.96400 | 34112 ft | 437 kts | 355° |
| 2026-04-24 13:52 | 36.52665 | -81.96561 | 34112 ft | 437 kts | 355° |
| 2026-04-24 13:52 | 36.58745 | -81.96718 | 34116 ft | 437 kts | 355° |
| 2026-04-24 13:53 | 36.64816 | -81.96882 | 34106 ft | 436 kts | 355° |
| 2026-04-24 13:53 | 36.70900 | -81.97043 | 34093 ft | 436 kts | 355° |
| 2026-04-24 13:54 | 36.76965 | -81.97202 | 34101 ft | 436 kts | 355° |
| 2026-04-24 13:54 | 36.83031 | -81.97368 | 34073 ft | 436 kts | 355° |
| 2026-04-24 13:55 | 36.89085 | -81.97530 | 34091 ft | 435 kts | 355° |
| 2026-04-24 13:55 | 36.95145 | -81.97688 | 34064 ft | 435 kts | 355° |
| 2026-04-24 13:56 | 37.01203 | -81.97850 | 34075 ft | 434 kts | 355° |
| 2026-04-24 13:56 | 37.07202 | -81.98012 | 34086 ft | 434 kts | 355° |
| 2026-04-24 13:57 | 37.13245 | -81.98173 | 34065 ft | 434 kts | 355° |
| 2026-04-24 13:57 | 37.19293 | -81.98335 | 34078 ft | 434 kts | 355° |
| 2026-04-24 13:58 | 37.25336 | -81.98501 | 34069 ft | 434 kts | 355° |
| 2026-04-24 13:58 | 37.31335 | -81.98661 | 34104 ft | 433 kts | 355° |
| 2026-04-24 13:59 | 37.37354 | -81.98821 | 34126 ft | 432 kts | 355° |
| 2026-04-24 13:59 | 37.43375 | -81.98987 | 34114 ft | 432 kts | 355° |
| 2026-04-24 14:00 | 37.49394 | -81.99148 | 34101 ft | 432 kts | 355° |
| 2026-04-24 14:00 | 37.55408 | -81.99311 | 34091 ft | 432 kts | 355° |
| 2026-04-24 14:01 | 37.61396 | -81.99473 | 34082 ft | 433 kts | 355° |
| 2026-04-24 14:01 | 37.67416 | -81.99638 | 34077 ft | 433 kts | 355° |
| 2026-04-24 14:02 | 37.72430 | -81.99773 | 34077 ft | 433 kts | 355° |
| 2026-04-24 14:02 | 37.79467 | -81.99966 | 34078 ft | 433 kts | 355° |
| 2026-04-24 14:03 | 37.84477 | -82.00104 | 34079 ft | 433 kts | 355° |
| 2026-04-24 14:03 | 37.90497 | -82.00268 | 34077 ft | 433 kts | 355° |
| 2026-04-24 14:04 | 37.96521 | -82.00435 | 34071 ft | 433 kts | 355° |
| 2026-04-24 14:04 | 38.02508 | -82.00600 | 34063 ft | 433 kts | 355° |
| 2026-04-24 14:05 | 38.08534 | -82.00762 | 34054 ft | 433 kts | 355° |
| 2026-04-24 14:05 | 38.14560 | -82.00925 | 34045 ft | 433 kts | 355° |
| 2026-04-24 14:06 | 38.20587 | -82.01096 | 34028 ft | 433 kts | 355° |
| 2026-04-24 14:06 | 38.26611 | -82.01262 | 34005 ft | 433 kts | 355° |
| 2026-04-24 14:07 | 38.32608 | -82.01426 | 34003 ft | 432 kts | 355° |
| 2026-04-24 14:07 | 38.38634 | -82.01594 | 33984 ft | 433 kts | 355° |
| 2026-04-24 14:08 | 38.44652 | -82.01762 | 33959 ft | 433 kts | 355° |
| 2026-04-24 14:08 | 38.50677 | -82.01927 | 33994 ft | 432 kts | 355° |
| 2026-04-24 14:09 | 38.56678 | -82.02097 | 34014 ft | 431 kts | 355° |
| 2026-04-24 14:09 | 38.62650 | -82.02262 | 33990 ft | 431 kts | 355° |
| 2026-04-24 14:10 | 38.68640 | -82.02429 | 33977 ft | 431 kts | 355° |
| 2026-04-24 14:10 | 38.74646 | -82.02603 | 33954 ft | 430 kts | 354° |
| 2026-04-24 14:11 | 38.80581 | -82.03378 | 33937 ft | 428 kts | 350° |
| 2026-04-24 14:12 | 38.89426 | -82.04838 | 33935 ft | 428 kts | 350° |
| 2026-04-24 14:12 | 38.95352 | -82.05754 | 33933 ft | 428 kts | 351° |
| 2026-04-24 14:13 | 39.01259 | -82.06681 | 33953 ft | 428 kts | 351° |
| 2026-04-24 14:13 | 39.07175 | -82.07623 | 33957 ft | 428 kts | 351° |
| 2026-04-24 14:14 | 39.13081 | -82.08554 | 33967 ft | 427 kts | 351° |
| 2026-04-24 14:14 | 39.21929 | -82.09958 | 33966 ft | 427 kts | 351° |
| 2026-04-24 14:15 | 39.27831 | -82.10897 | 33951 ft | 427 kts | 351° |
| 2026-04-24 14:15 | 39.33693 | -82.11833 | 33952 ft | 427 kts | 352° |
| 2026-04-24 14:16 | 39.39597 | -82.12772 | 33922 ft | 427 kts | 352° |
| 2026-04-24 14:17 | 39.48440 | -82.14190 | 33919 ft | 426 kts | 352° |
| 2026-04-24 14:17 | 39.57243 | -82.15598 | 33895 ft | 426 kts | 352° |
| 2026-04-24 14:18 | 39.63129 | -82.16544 | 33902 ft | 426 kts | 352° |
| 2026-04-24 14:18 | 39.69015 | -82.17493 | 33921 ft | 426 kts | 352° |
| 2026-04-24 14:19 | 39.74902 | -82.18445 | 33943 ft | 426 kts | 352° |
| 2026-04-24 14:19 | 39.80775 | -82.19390 | 33969 ft | 425 kts | 352° |
| 2026-04-24 14:20 | 39.86656 | -82.20342 | 33972 ft | 425 kts | 352° |
| 2026-04-24 14:20 | 39.92492 | -82.21288 | 33971 ft | 425 kts | 352° |
| 2026-04-24 14:21 | 39.98359 | -82.22236 | 33969 ft | 425 kts | 352° |
| 2026-04-24 14:21 | 40.04229 | -82.23194 | 33967 ft | 425 kts | 352° |
| 2026-04-24 14:22 | 40.10105 | -82.24152 | 33962 ft | 425 kts | 352° |
| 2026-04-24 14:23 | 40.18905 | -82.25588 | 33955 ft | 425 kts | 352° |
| 2026-04-24 14:23 | 40.24786 | -82.26551 | 33949 ft | 425 kts | 352° |
| 2026-04-24 14:24 | 40.30617 | -82.27508 | 33945 ft | 425 kts | 352° |
| 2026-04-24 14:24 | 40.36522 | -82.28476 | 33940 ft | 425 kts | 352° |
| 2026-04-24 14:25 | 40.42351 | -82.29434 | 33933 ft | 425 kts | 352° |
| 2026-04-24 14:25 | 40.48220 | -82.30416 | 33926 ft | 425 kts | 350° |
| 2026-04-24 14:26 | 40.53927 | -82.32423 | 33906 ft | 425 kts | 342° |
| 2026-04-24 14:26 | 40.59531 | -82.34853 | 33948 ft | 423 kts | 341° |
| 2026-04-24 14:27 | 40.65144 | -82.37224 | 33954 ft | 423 kts | 342° |
| 2026-04-24 14:27 | 40.70766 | -82.39536 | 33948 ft | 423 kts | 342° |
| 2026-04-24 14:28 | 40.76374 | -82.41891 | 33744 ft | 421 kts | 341° |
| 2026-04-24 14:28 | 40.79160 | -82.43065 | 33174 ft | 420 kts | 341° |
| 2026-04-24 14:28 | 40.81952 | -82.44239 | 32260 ft | 425 kts | 342° |
| 2026-04-24 14:28 | 40.84801 | -82.45435 | 31155 ft | 434 kts | 341° |
| 2026-04-24 14:29 | 40.87659 | -82.46634 | 30333 ft | 436 kts | 341° |
| 2026-04-24 14:29 | 40.90568 | -82.47854 | 29875 ft | 428 kts | 341° |
| 2026-04-24 14:29 | 40.93373 | -82.49034 | 29538 ft | 418 kts | 341° |
| 2026-04-24 14:29 | 40.96127 | -82.50196 | 29066 ft | 412 kts | 341° |
| 2026-04-24 14:30 | 40.97925 | -82.50956 | 28740 ft | 408 kts | 341° |
| 2026-04-24 14:30 | 41.01475 | -82.52457 | 28082 ft | 401 kts | 341° |
| 2026-04-24 14:30 | 41.04124 | -82.53577 | 27607 ft | 396 kts | 341° |
| 2026-04-24 14:30 | 41.06730 | -82.54678 | 27122 ft | 391 kts | 341° |
| 2026-04-24 14:31 | 41.09311 | -82.55774 | 26657 ft | 388 kts | 341° |
| 2026-04-24 14:31 | 41.11850 | -82.56888 | 26294 ft | 382 kts | 340° |
| 2026-04-24 14:31 | 41.14348 | -82.58015 | 25938 ft | 376 kts | 340° |
| 2026-04-24 14:31 | 41.16810 | -82.59129 | 25585 ft | 370 kts | 340° |
| 2026-04-24 14:32 | 41.19236 | -82.60216 | 25236 ft | 365 kts | 340° |
| 2026-04-24 14:32 | 41.21625 | -82.61275 | 24894 ft | 360 kts | 340° |
| 2026-04-24 14:32 | 41.23979 | -82.62318 | 24557 ft | 354 kts | 340° |
| 2026-04-24 14:32 | 41.26302 | -82.63348 | 24226 ft | 349 kts | 340° |
| 2026-04-24 14:33 | 41.28595 | -82.64383 | 23897 ft | 348 kts | 338° |
| 2026-04-24 14:33 | 41.30776 | -82.65750 | 23569 ft | 346 kts | 330° |
| 2026-04-24 14:33 | 41.32864 | -82.67324 | 23246 ft | 345 kts | 329° |
| 2026-04-24 14:33 | 41.34893 | -82.68926 | 22925 ft | 343 kts | 328° |
| 2026-04-24 14:34 | 41.36804 | -82.70443 | 22622 ft | 341 kts | 328° |
| 2026-04-24 14:34 | 41.38981 | -82.72145 | 22279 ft | 340 kts | 329° |
| 2026-04-24 14:34 | 41.41027 | -82.73718 | 21958 ft | 339 kts | 329° |
| 2026-04-24 14:34 | 41.43066 | -82.75278 | 21639 ft | 337 kts | 329° |
| 2026-04-24 14:35 | 41.45097 | -82.76839 | 21323 ft | 336 kts | 329° |
| 2026-04-24 14:35 | 41.47115 | -82.78397 | 21007 ft | 335 kts | 329° |
| 2026-04-24 14:35 | 41.49128 | -82.79955 | 20694 ft | 334 kts | 329° |
| 2026-04-24 14:35 | 41.51136 | -82.81510 | 20382 ft | 333 kts | 329° |
| 2026-04-24 14:36 | 41.53139 | -82.83060 | 20071 ft | 331 kts | 329° |
| 2026-04-24 14:36 | 41.55129 | -82.84600 | 19763 ft | 330 kts | 329° |
| 2026-04-24 14:36 | 41.57120 | -82.86142 | 19455 ft | 329 kts | 329° |
| 2026-04-24 14:36 | 41.59066 | -82.87652 | 19154 ft | 328 kts | 328° |
| 2026-04-24 14:37 | 41.61033 | -82.89182 | 18849 ft | 326 kts | 328° |
| 2026-04-24 14:37 | 41.62996 | -82.90707 | 18547 ft | 326 kts | 328° |
| 2026-04-24 14:37 | 41.64951 | -82.92224 | 18244 ft | 325 kts | 328° |
| 2026-04-24 14:37 | 41.66891 | -82.93752 | 17943 ft | 323 kts | 326° |
| 2026-04-24 14:38 | 41.68679 | -82.95555 | 17646 ft | 321 kts | 319° |
| 2026-04-24 14:38 | 41.70376 | -82.97492 | 17349 ft | 319 kts | 317° |
| 2026-04-24 14:38 | 41.72041 | -82.99458 | 17053 ft | 318 kts | 317° |
| 2026-04-24 14:38 | 41.73696 | -83.01408 | 16762 ft | 317 kts | 317° |
| 2026-04-24 14:39 | 41.75397 | -83.03387 | 16516 ft | 328 kts | 317° |
| 2026-04-24 14:39 | 41.77152 | -83.05408 | 16245 ft | 327 kts | 318° |
| 2026-04-24 14:39 | 41.78869 | -83.07380 | 15964 ft | 322 kts | 317° |
| 2026-04-24 14:39 | 41.80531 | -83.09294 | 15685 ft | 317 kts | 317° |
| 2026-04-24 14:40 | 41.82189 | -83.11209 | 15401 ft | 312 kts | 317° |
| 2026-04-24 14:40 | 41.83826 | -83.13103 | 15117 ft | 308 kts | 317° |
| 2026-04-24 14:40 | 41.85449 | -83.14977 | 14836 ft | 308 kts | 317° |
| 2026-04-24 14:40 | 41.87085 | -83.16823 | 14551 ft | 307 kts | 318° |
| 2026-04-24 14:41 | 41.88727 | -83.18655 | 14265 ft | 306 kts | 318° |
| 2026-04-24 14:41 | 41.90364 | -83.20479 | 13979 ft | 305 kts | 318° |
| 2026-04-24 14:41 | 41.91987 | -83.22291 | 13698 ft | 303 kts | 318° |
| 2026-04-24 14:41 | 41.93605 | -83.24100 | 13417 ft | 302 kts | 318° |
| 2026-04-24 14:42 | 41.94677 | -83.25300 | 13231 ft | 302 kts | 317° |
| 2026-04-24 14:42 | 41.96822 | -83.27709 | 12858 ft | 300 kts | 317° |
| 2026-04-24 14:42 | 41.98421 | -83.29505 | 12580 ft | 299 kts | 317° |
| 2026-04-24 14:42 | 42.00009 | -83.31284 | 12313 ft | 296 kts | 318° |
| 2026-04-24 14:43 | 42.01745 | -83.32757 | 12051 ft | 297 kts | 335° |
| 2026-04-24 14:43 | 42.03809 | -83.33195 | 11971 ft | 307 kts | 2° |
| 2026-04-24 14:43 | 42.05858 | -83.32339 | 11983 ft | 314 kts | 26° |
| 2026-04-24 14:43 | 42.07726 | -83.30826 | 11960 ft | 312 kts | 31° |
| 2026-04-24 14:44 | 42.09525 | -83.29222 | 11612 ft | 310 kts | 31° |
| 2026-04-24 14:44 | 42.11344 | -83.27648 | 11133 ft | 311 kts | 30° |
| 2026-04-24 14:44 | 42.13202 | -83.26155 | 10685 ft | 310 kts | 28° |
| 2026-04-24 14:44 | 42.15070 | -83.24719 | 10257 ft | 309 kts | 27° |
| 2026-04-24 14:45 | 42.16909 | -83.23310 | 9841 ft | 307 kts | 27° |
| 2026-04-24 14:45 | 42.18764 | -83.21874 | 9411 ft | 306 kts | 28° |
| 2026-04-24 14:45 | 42.20607 | -83.20429 | 8975 ft | 305 kts | 28° |
| 2026-04-24 14:45 | 42.22436 | -83.18986 | 8551 ft | 303 kts | 28° |
| 2026-04-24 14:46 | 42.24257 | -83.17569 | 8134 ft | 301 kts | 27° |
| 2026-04-24 14:46 | 42.26097 | -83.16223 | 7727 ft | 299 kts | 26° |
| 2026-04-24 14:46 | 42.27900 | -83.14901 | 7517 ft | 289 kts | 26° |
| 2026-04-24 14:46 | 42.29610 | -83.13613 | 7398 ft | 275 kts | 26° |
| 2026-04-24 14:47 | 42.30698 | -83.12797 | 7299 ft | 267 kts | 26° |
| 2026-04-24 14:47 | 42.32856 | -83.11211 | 6855 ft | 262 kts | 25° |
| 2026-04-24 14:47 | 42.34462 | -83.10046 | 6479 ft | 261 kts | 25° |
| 2026-04-24 14:47 | 42.36089 | -83.08971 | 6094 ft | 257 kts | 13° |
| 2026-04-24 14:48 | 42.37814 | -83.08739 | 5646 ft | 247 kts | 347° |
| 2026-04-24 14:48 | 42.39395 | -83.09528 | 5192 ft | 240 kts | 322° |
| 2026-04-24 14:48 | 42.40577 | -83.11031 | 4837 ft | 230 kts | 301° |
| 2026-04-24 14:48 | 42.41244 | -83.12959 | 4445 ft | 225 kts | 281° |
| 2026-04-24 14:49 | 42.41345 | -83.15045 | 4042 ft | 222 kts | 260° |
| 2026-04-24 14:49 | 42.40890 | -83.16981 | 3796 ft | 211 kts | 240° |
| 2026-04-24 14:49 | 42.40037 | -83.18511 | 3581 ft | 201 kts | 226° |
| 2026-04-24 14:49 | 42.39086 | -83.19875 | 3264 ft | 197 kts | 227° |
| 2026-04-24 14:50 | 42.38209 | -83.21184 | 3120 ft | 183 kts | 225° |
| 2026-04-24 14:50 | 42.37227 | -83.22141 | 3016 ft | 166 kts | 210° |
| 2026-04-24 14:50 | 42.36565 | -83.22634 | 3004 ft | 157 kts | 209° |
| 2026-04-24 14:50 | 42.35320 | -83.23545 | 3002 ft | 152 kts | 210° |
| 2026-04-24 14:51 | 42.34393 | -83.24236 | 3001 ft | 152 kts | 210° |
| 2026-04-24 14:51 | 42.33765 | -83.24702 | 3000 ft | 152 kts | 210° |
| 2026-04-24 14:51 | 42.32843 | -83.25383 | 3012 ft | 152 kts | 210° |
| 2026-04-24 14:51 | 42.31932 | -83.26055 | 2864 ft | 151 kts | 210° |
| 2026-04-24 14:52 | 42.31014 | -83.26734 | 2676 ft | 150 kts | 210° |
| 2026-04-24 14:52 | 42.30099 | -83.27410 | 2478 ft | 149 kts | 210° |
| 2026-04-24 14:52 | 42.29190 | -83.28081 | 2280 ft | 149 kts | 210° |
| 2026-04-24 14:52 | 42.28282 | -83.28751 | 2083 ft | 148 kts | 209° |
| 2026-04-24 14:53 | 42.27380 | -83.29417 | 1887 ft | 148 kts | 208° |
| 2026-04-24 14:53 | 42.26478 | -83.30083 | 1692 ft | 147 kts | 208° |
| 2026-04-24 14:53 | 42.25578 | -83.30745 | 1495 ft | 147 kts | 208° |
| 2026-04-24 14:53 | 42.24685 | -83.31401 | 1294 ft | 146 kts | 208° |
| 2026-04-24 14:54 | 42.23802 | -83.32047 | 1086 ft | 146 kts | 208° |
| 2026-04-24 14:54 | 42.22909 | -83.32713 | 897 ft | 145 kts | 209° |
| 2026-04-24 14:54 | 42.22026 | -83.33371 | 721 ft | 145 kts | 209° |
| 2026-04-24 14:54 | 42.21170 | -83.34002 | 661 ft | 128 kts | 208° |
| 2026-04-24 14:55 | 42.20490 | -83.34499 | 661 ft | 85 kts | 206° |
| 2026-04-24 14:55 | 42.20230 | -83.34682 | 660 ft | 24 kts | 208° |
| 2026-04-24 14:55 | 42.20182 | -83.34834 | 661 ft | 18 kts | 270° |
| 2026-04-24 14:55 | 42.20182 | -83.35000 | 660 ft | 18 kts | 269° |
| 2026-04-24 14:56 | 42.20179 | -83.35174 | 660 ft | 19 kts | 268° |
| 2026-04-24 14:56 | 42.20174 | -83.35355 | 660 ft | 20 kts | 267° |
| 2026-04-24 14:56 | 42.20171 | -83.35539 | 660 ft | 19 kts | 268° |
| 2026-04-24 14:56 | 42.20167 | -83.35719 | 660 ft | 18 kts | 269° |
| 2026-04-24 14:57 | 42.20165 | -83.35884 | 660 ft | 18 kts | 269° |
| 2026-04-24 14:57 | 42.20163 | -83.36054 | 660 ft | 18 kts | 269° |
| 2026-04-24 14:57 | 42.20172 | -83.36227 | 660 ft | 19 kts | 281° |
| 2026-04-24 14:57 | 42.20201 | -83.36376 | 660 ft | 16 kts | 310° |
| 2026-04-24 14:58 | 42.20302 | -83.36387 | 660 ft | 16 kts | 27° |
| 2026-04-24 14:58 | 42.20401 | -83.36315 | 660 ft | 17 kts | 28° |
| 2026-04-24 14:58 | 42.20506 | -83.36236 | 660 ft | 18 kts | 29° |
| 2026-04-24 14:58 | 42.20617 | -83.36153 | 660 ft | 18 kts | 28° |
| 2026-04-24 14:59 | 42.20728 | -83.36074 | 660 ft | 18 kts | 27° |
| 2026-04-24 14:59 | 42.20840 | -83.35993 | 660 ft | 18 kts | 29° |
| 2026-04-24 14:59 | 42.20951 | -83.35909 | 660 ft | 19 kts | 29° |
| 2026-04-24 14:59 | 42.21059 | -83.35831 | 660 ft | 15 kts | 25° |
| 2026-04-24 15:00 | 42.21150 | -83.35764 | 660 ft | 15 kts | 30° |
| 2026-04-24 15:00 | 42.21240 | -83.35697 | 660 ft | 14 kts | 28° |
| 2026-04-24 15:00 | 42.21321 | -83.35638 | 660 ft | 7 kts | 28° |
| 2026-04-24 15:00 | 42.21356 | -83.35612 | 660 ft | 6 kts | 29° |
| 2026-04-24 15:01 | 42.21397 | -83.35580 | 660 ft | 7 kts | 29° |
| 2026-04-24 15:01 | 42.21446 | -83.35543 | 660 ft | 9 kts | 32° |
| 2026-04-24 15:01 | 42.21451 | -83.35473 | 660 ft | 8 kts | 122° |
| 2026-04-24 15:01 | 42.21435 | -83.35440 | 660 ft | 4 kts | 118° |
| 2026-04-24 15:02 | 42.21434 | -83.35438 | 660 ft | 0 kts | 118° |